createdAt,value
2023-04-15T00:00:19.000Z,5.866324535679393
2023-04-15T00:01:22.000Z,5.905229716520058
2023-04-15T00:02:25.000Z,5.914956011730224
2023-04-15T00:03:28.000Z,5.973313782991221
2023-04-15T00:04:31.000Z,5.9830400782013875
2023-04-15T00:05:34.000Z,5.9830400782013875
2023-04-15T00:06:36.000Z,5.9830400782013875
2023-04-15T00:07:39.000Z,5.934408602150556
2023-04-15T00:08:42.000Z,6.00249266862172
2023-04-15T00:09:45.000Z,6.021945259042052
2023-04-15T00:10:48.000Z,6.012218963831886
2023-04-15T00:11:51.000Z,6.021945259042052
2023-04-15T00:12:54.000Z,5.973313782991221
2023-04-15T00:13:57.000Z,5.992766373411554
2023-04-15T00:15:00.000Z,5.963587487781055
2023-04-15T00:16:03.000Z,5.9830400782013875
2023-04-15T00:17:05.000Z,5.963587487781055
2023-04-15T00:18:08.000Z,5.992766373411554
2023-04-15T00:19:11.000Z,5.963587487781055
2023-04-15T00:20:14.000Z,5.953861192570889
2023-04-15T00:21:17.000Z,5.934408602150556
2023-04-15T00:22:20.000Z,5.876050830889559
2023-04-15T00:23:23.000Z,5.885777126099725
2023-04-15T00:24:26.000Z,5.895503421309892
2023-04-15T00:25:29.000Z,5.992766373411554
2023-04-15T00:26:32.000Z,6.012218963831886
2023-04-15T00:27:35.000Z,6.012218963831886
2023-04-15T00:28:38.000Z,5.9830400782013875
2023-04-15T00:29:40.000Z,5.92468230694039
2023-04-15T00:30:43.000Z,5.92468230694039
2023-04-15T00:31:46.000Z,5.944134897360723
2023-04-15T00:32:49.000Z,6.012218963831886
2023-04-15T00:33:52.000Z,6.012218963831886
2023-04-15T00:34:55.000Z,5.963587487781055
2023-04-15T00:35:58.000Z,5.895503421309892
2023-04-15T00:37:01.000Z,5.973313782991221
2023-04-15T00:38:03.000Z,5.953861192570889
2023-04-15T00:39:06.000Z,5.9830400782013875
2023-04-15T00:40:09.000Z,5.876050830889559
2023-04-15T00:41:13.000Z,5.92468230694039
2023-04-15T00:42:16.000Z,5.963587487781055
2023-04-15T00:43:19.000Z,5.953861192570889
2023-04-15T00:44:22.000Z,5.856598240469227
2023-04-15T00:45:25.000Z,5.934408602150556
2023-04-15T00:46:28.000Z,5.992766373411554
2023-04-15T00:47:31.000Z,6.00249266862172
2023-04-15T00:48:34.000Z,6.00249266862172
2023-04-15T00:49:37.000Z,6.041397849462385
2023-04-15T00:50:40.000Z,5.992766373411554
2023-04-15T00:51:43.000Z,5.9830400782013875
2023-04-15T00:52:46.000Z,5.817693059628562
2023-04-15T00:53:49.000Z,6.021945259042052
2023-04-15T00:54:52.000Z,6.021945259042052
2023-04-15T00:55:55.000Z,6.060850439882717
2023-04-15T00:56:58.000Z,5.953861192570889
2023-04-15T00:58:01.000Z,5.905229716520058
2023-04-15T00:59:04.000Z,5.953861192570889
2023-04-15T01:00:07.000Z,5.914956011730224
2023-04-15T01:01:10.000Z,5.934408602150556
2023-04-15T01:02:13.000Z,5.963587487781055
2023-04-15T01:03:16.000Z,5.963587487781055
2023-04-15T01:04:19.000Z,5.953861192570889
2023-04-15T01:05:22.000Z,5.963587487781055
2023-04-15T01:06:25.000Z,5.963587487781055
2023-04-15T01:07:28.000Z,5.992766373411554
2023-04-15T01:08:31.000Z,6.012218963831886
2023-04-15T01:09:34.000Z,5.914956011730224
2023-04-15T01:10:37.000Z,5.992766373411554
2023-04-15T01:11:40.000Z,6.012218963831886
2023-04-15T01:12:44.000Z,6.021945259042052
2023-04-15T01:13:47.000Z,6.00249266862172
2023-04-15T01:14:50.000Z,6.021945259042052
2023-04-15T01:15:53.000Z,5.944134897360723
2023-04-15T01:16:57.000Z,5.953861192570889
2023-04-15T01:18:00.000Z,5.905229716520058
2023-04-15T01:19:03.000Z,5.953861192570889
2023-04-15T01:20:06.000Z,5.963587487781055
2023-04-15T01:21:09.000Z,5.9830400782013875
2023-04-15T01:22:12.000Z,5.963587487781055
2023-04-15T01:23:15.000Z,5.876050830889559
2023-04-15T01:24:19.000Z,5.953861192570889
2023-04-15T01:25:22.000Z,5.953861192570889
2023-04-15T01:26:25.000Z,5.944134897360723
2023-04-15T01:27:28.000Z,5.973313782991221
2023-04-15T01:28:31.000Z,5.953861192570889
2023-04-15T01:29:34.000Z,5.876050830889559
2023-04-15T01:30:37.000Z,5.866324535679393
2023-04-15T01:31:40.000Z,5.9830400782013875
2023-04-15T01:32:43.000Z,6.041397849462385
2023-04-15T01:33:46.000Z,6.00249266862172
2023-04-15T01:34:49.000Z,6.012218963831886
2023-04-15T01:35:52.000Z,5.895503421309892
2023-04-15T01:36:55.000Z,5.944134897360723
2023-04-15T01:37:58.000Z,5.876050830889559
2023-04-15T01:39:01.000Z,5.963587487781055
2023-04-15T01:40:04.000Z,5.963587487781055
2023-04-15T01:41:07.000Z,5.9830400782013875
2023-04-15T01:42:10.000Z,5.953861192570889
2023-04-15T01:43:18.000Z,5.953861192570889
2023-04-15T01:44:21.000Z,5.944134897360723
2023-04-15T01:45:24.000Z,5.934408602150556
2023-04-15T01:46:27.000Z,5.944134897360723
2023-04-15T01:47:30.000Z,5.876050830889559
2023-04-15T01:48:33.000Z,5.973313782991221
2023-04-15T01:49:36.000Z,5.92468230694039
2023-04-15T01:50:39.000Z,5.963587487781055
2023-04-15T01:51:42.000Z,5.992766373411554
2023-04-15T01:52:45.000Z,5.9830400782013875
2023-04-15T01:53:48.000Z,6.00249266862172
2023-04-15T01:54:51.000Z,6.00249266862172
2023-04-15T01:55:54.000Z,6.012218963831886
2023-04-15T01:56:57.000Z,5.944134897360723
2023-04-15T01:58:00.000Z,5.973313782991221
2023-04-15T01:59:04.000Z,5.885777126099725
2023-04-15T02:00:07.000Z,5.9830400782013875
2023-04-15T02:01:09.000Z,5.9830400782013875
2023-04-15T02:02:12.000Z,5.963587487781055
2023-04-15T02:03:15.000Z,5.944134897360723
2023-04-15T02:04:19.000Z,5.866324535679393
2023-04-15T02:05:22.000Z,5.953861192570889
2023-04-15T02:06:25.000Z,5.944134897360723
2023-04-15T02:07:28.000Z,5.905229716520058
2023-04-15T02:08:31.000Z,5.905229716520058
2023-04-15T02:09:34.000Z,5.885777126099725
2023-04-15T02:10:39.000Z,6.00249266862172
2023-04-15T02:11:42.000Z,5.895503421309892
2023-04-15T02:12:45.000Z,6.00249266862172
2023-04-15T02:13:48.000Z,6.021945259042052
2023-04-15T02:14:51.000Z,6.012218963831886
2023-04-15T02:15:54.000Z,6.021945259042052
2023-04-15T02:16:57.000Z,5.963587487781055
2023-04-15T02:18:00.000Z,5.973313782991221
2023-04-15T02:19:03.000Z,5.992766373411554
2023-04-15T02:20:06.000Z,5.9830400782013875
2023-04-15T02:21:10.000Z,5.963587487781055
2023-04-15T02:22:13.000Z,5.973313782991221
2023-04-15T02:23:16.000Z,5.973313782991221
2023-04-15T02:24:24.000Z,5.876050830889559
2023-04-15T02:25:27.000Z,5.953861192570889
2023-04-15T02:26:30.000Z,5.953861192570889
2023-04-15T02:27:33.000Z,6.00249266862172
2023-04-15T02:28:37.000Z,5.934408602150556
2023-04-15T02:29:40.000Z,5.92468230694039
2023-04-15T02:30:43.000Z,5.9830400782013875
2023-04-15T02:31:46.000Z,5.9830400782013875
2023-04-15T02:32:49.000Z,5.992766373411554
2023-04-15T02:33:52.000Z,5.92468230694039
2023-04-15T02:34:55.000Z,5.992766373411554
2023-04-15T02:35:58.000Z,6.00249266862172
2023-04-15T02:37:01.000Z,5.992766373411554
2023-04-15T02:38:04.000Z,5.992766373411554
2023-04-15T02:39:07.000Z,5.905229716520058
2023-04-15T02:40:10.000Z,5.914956011730224
2023-04-15T02:41:13.000Z,5.963587487781055
2023-04-15T02:42:16.000Z,5.876050830889559
2023-04-15T02:43:19.000Z,5.963587487781055
2023-04-15T02:44:23.000Z,5.885777126099725
2023-04-15T02:45:26.000Z,5.953861192570889
2023-04-15T02:46:29.000Z,5.934408602150556
2023-04-15T02:47:37.000Z,5.944134897360723
2023-04-15T02:48:40.000Z,5.992766373411554
2023-04-15T02:49:42.000Z,6.012218963831886
2023-04-15T02:50:45.000Z,6.012218963831886
2023-04-15T02:51:48.000Z,6.012218963831886
2023-04-15T02:52:56.000Z,6.021945259042052
2023-04-15T02:53:59.000Z,5.914956011730224
2023-04-15T02:55:02.000Z,6.00249266862172
2023-04-15T02:56:05.000Z,5.944134897360723
2023-04-15T02:57:15.000Z,5.914956011730224
2023-04-15T02:58:17.000Z,5.963587487781055
2023-04-15T02:59:21.000Z,5.953861192570889
2023-04-15T03:00:24.000Z,5.876050830889559
2023-04-15T03:01:27.000Z,5.9830400782013875
2023-04-15T03:02:30.000Z,5.876050830889559
2023-04-15T03:03:33.000Z,5.9830400782013875
2023-04-15T03:04:36.000Z,6.00249266862172
2023-04-15T03:05:39.000Z,6.00249266862172
2023-04-15T03:06:42.000Z,6.00249266862172
2023-04-15T03:07:45.000Z,5.92468230694039
2023-04-15T03:08:48.000Z,6.012218963831886
2023-04-15T03:09:51.000Z,6.012218963831886
2023-04-15T03:10:54.000Z,6.021945259042052
2023-04-15T03:11:57.000Z,6.060850439882717
2023-04-15T03:13:05.000Z,5.992766373411554
2023-04-15T03:14:08.000Z,5.9830400782013875
2023-04-15T03:15:11.000Z,6.00249266862172
2023-04-15T03:16:14.000Z,5.973313782991221
2023-04-15T03:17:17.000Z,5.9830400782013875
2023-04-15T03:18:20.000Z,5.895503421309892
2023-04-15T03:19:23.000Z,5.9830400782013875
2023-04-15T03:20:26.000Z,5.973313782991221
2023-04-15T03:21:29.000Z,5.973313782991221
2023-04-15T03:22:32.000Z,5.8468719452590605
2023-04-15T03:23:35.000Z,5.92468230694039
2023-04-15T03:24:38.000Z,6.00249266862172
2023-04-15T03:25:41.000Z,6.00249266862172
2023-04-15T03:26:44.000Z,6.00249266862172
2023-04-15T03:27:47.000Z,5.92468230694039
2023-04-15T03:28:50.000Z,6.021945259042052
2023-04-15T03:29:53.000Z,5.953861192570889
2023-04-15T03:30:57.000Z,6.031671554252219
2023-04-15T03:32:00.000Z,6.041397849462385
2023-04-15T03:33:04.000Z,5.905229716520058
2023-04-15T03:34:07.000Z,5.973313782991221
2023-04-15T03:35:15.000Z,5.9830400782013875
2023-04-15T03:36:17.000Z,5.9830400782013875
2023-04-15T03:37:21.000Z,5.895503421309892
2023-04-15T03:38:24.000Z,5.963587487781055
2023-04-15T03:39:26.000Z,5.963587487781055
2023-04-15T03:40:29.000Z,5.973313782991221
2023-04-15T03:41:32.000Z,5.963587487781055
2023-04-15T03:42:35.000Z,6.012218963831886
2023-04-15T03:43:38.000Z,5.9830400782013875
2023-04-15T03:44:41.000Z,5.953861192570889
2023-04-15T03:45:44.000Z,5.807966764418396
2023-04-15T03:46:47.000Z,5.953861192570889
2023-04-15T03:47:50.000Z,6.00249266862172
2023-04-15T03:48:53.000Z,6.00249266862172
2023-04-15T03:49:56.000Z,6.021945259042052
2023-04-15T03:50:59.000Z,5.934408602150556
2023-04-15T03:52:02.000Z,6.051124144672551
2023-04-15T03:53:05.000Z,5.9830400782013875
2023-04-15T03:54:08.000Z,5.973313782991221
2023-04-15T03:55:11.000Z,5.914956011730224
2023-04-15T03:56:14.000Z,5.963587487781055
2023-04-15T03:57:17.000Z,5.992766373411554
2023-04-15T03:58:22.000Z,6.012218963831886
2023-04-15T03:59:25.000Z,5.9830400782013875
2023-04-15T04:00:28.000Z,5.973313782991221
2023-04-15T04:01:31.000Z,5.973313782991221
2023-04-15T04:02:34.000Z,5.905229716520058
2023-04-15T04:03:37.000Z,6.021945259042052
2023-04-15T04:04:40.000Z,6.031671554252219
2023-04-15T04:05:43.000Z,6.012218963831886
2023-04-15T04:06:46.000Z,6.021945259042052
2023-04-15T04:07:49.000Z,6.021945259042052
2023-04-15T04:08:52.000Z,6.031671554252219
2023-04-15T04:09:54.000Z,6.031671554252219
2023-04-15T04:10:57.000Z,6.00249266862172
2023-04-15T04:12:00.000Z,5.963587487781055
2023-04-15T04:13:03.000Z,5.953861192570889
2023-04-15T04:14:06.000Z,6.012218963831886
2023-04-15T04:15:09.000Z,6.00249266862172
2023-04-15T04:16:12.000Z,6.00249266862172
2023-04-15T04:17:15.000Z,5.992766373411554
2023-04-15T04:18:18.000Z,5.973313782991221
2023-04-15T04:19:21.000Z,5.92468230694039
2023-04-15T04:20:24.000Z,5.992766373411554
2023-04-15T04:21:27.000Z,5.992766373411554
2023-04-15T04:22:30.000Z,5.9830400782013875
2023-04-15T04:23:33.000Z,5.9830400782013875
2023-04-15T04:24:36.000Z,6.012218963831886
2023-04-15T04:25:39.000Z,5.934408602150556
2023-04-15T04:26:42.000Z,6.012218963831886
2023-04-15T04:27:45.000Z,6.012218963831886
2023-04-15T04:28:48.000Z,6.012218963831886
2023-04-15T04:29:51.000Z,6.021945259042052
2023-04-15T04:30:54.000Z,5.963587487781055
2023-04-15T04:31:57.000Z,6.041397849462385
2023-04-15T04:33:00.000Z,6.060850439882717
2023-04-15T04:34:03.000Z,6.1192082111437145
2023-04-15T04:35:06.000Z,5.973313782991221
2023-04-15T04:36:09.000Z,6.031671554252219
2023-04-15T04:37:12.000Z,6.031671554252219
2023-04-15T04:38:15.000Z,6.00249266862172
2023-04-15T04:39:18.000Z,5.914956011730224
2023-04-15T04:40:21.000Z,5.92468230694039
2023-04-15T04:41:24.000Z,5.992766373411554
2023-04-15T04:42:27.000Z,6.00249266862172
2023-04-15T04:43:29.000Z,5.9830400782013875
2023-04-15T04:44:32.000Z,5.9830400782013875
2023-04-15T04:45:35.000Z,5.895503421309892
2023-04-15T04:46:38.000Z,6.060850439882717
2023-04-15T04:47:41.000Z,6.041397849462385
2023-04-15T04:48:45.000Z,6.031671554252219
2023-04-15T04:49:48.000Z,6.041397849462385
2023-04-15T04:50:50.000Z,6.031671554252219
2023-04-15T04:51:59.000Z,6.08030303030305
2023-04-15T04:53:01.000Z,5.992766373411554
2023-04-15T04:54:04.000Z,6.08030303030305
2023-04-15T04:55:07.000Z,6.1192082111437145
2023-04-15T04:56:10.000Z,6.021945259042052
2023-04-15T04:57:13.000Z,5.953861192570889
2023-04-15T04:58:16.000Z,6.031671554252219
2023-04-15T04:59:19.000Z,6.012218963831886
2023-04-15T05:00:22.000Z,5.963587487781055
2023-04-15T05:01:25.000Z,6.012218963831886
2023-04-15T05:02:28.000Z,6.00249266862172
2023-04-15T05:03:31.000Z,6.012218963831886
2023-04-15T05:04:34.000Z,6.00249266862172
2023-04-15T05:05:37.000Z,5.992766373411554
2023-04-15T05:06:41.000Z,5.973313782991221
2023-04-15T05:07:43.000Z,6.070576735092883
2023-04-15T05:08:46.000Z,6.08030303030305
2023-04-15T05:09:50.000Z,6.099755620723382
2023-04-15T05:10:52.000Z,6.060850439882717
2023-04-15T05:11:55.000Z,6.08030303030305
2023-04-15T05:12:59.000Z,5.992766373411554
2023-04-15T05:14:02.000Z,5.963587487781055
2023-04-15T05:15:05.000Z,6.099755620723382
2023-04-15T05:16:08.000Z,6.109481915933548
2023-04-15T05:17:11.000Z,6.041397849462385
2023-04-15T05:18:14.000Z,6.031671554252219
2023-04-15T05:19:17.000Z,5.934408602150556
2023-04-15T05:20:20.000Z,5.963587487781055
2023-04-15T05:21:23.000Z,6.031671554252219
2023-04-15T05:22:26.000Z,6.021945259042052
2023-04-15T05:23:29.000Z,6.00249266862172
2023-04-15T05:24:32.000Z,6.031671554252219
2023-04-15T05:25:40.000Z,5.944134897360723
2023-04-15T05:26:43.000Z,6.08030303030305
2023-04-15T05:27:46.000Z,6.070576735092883
2023-04-15T05:28:49.000Z,6.099755620723382
2023-04-15T05:29:52.000Z,6.090029325513216
2023-04-15T05:30:55.000Z,6.090029325513216
2023-04-15T05:31:58.000Z,6.08030303030305
2023-04-15T05:33:01.000Z,6.012218963831886
2023-04-15T05:34:04.000Z,6.08030303030305
2023-04-15T05:35:07.000Z,6.1192082111437145
2023-04-15T05:36:11.000Z,6.060850439882717
2023-04-15T05:37:19.000Z,6.060850439882717
2023-04-15T05:38:22.000Z,6.090029325513216
2023-04-15T05:39:25.000Z,6.041397849462385
2023-04-15T05:40:28.000Z,6.031671554252219
2023-04-15T05:41:31.000Z,5.866324535679393
2023-04-15T05:42:34.000Z,6.031671554252219
2023-04-15T05:43:37.000Z,6.041397849462385
2023-04-15T05:44:40.000Z,6.031671554252219
2023-04-15T05:45:43.000Z,6.08030303030305
2023-04-15T05:46:46.000Z,6.08030303030305
2023-04-15T05:47:49.000Z,6.090029325513216
2023-04-15T05:48:52.000Z,6.08030303030305
2023-04-15T05:49:55.000Z,6.08030303030305
2023-04-15T05:50:58.000Z,6.099755620723382
2023-04-15T05:52:01.000Z,6.00249266862172
2023-04-15T05:53:04.000Z,6.00249266862172
2023-04-15T05:54:07.000Z,6.099755620723382
2023-04-15T05:55:10.000Z,6.1192082111437145
2023-04-15T05:56:13.000Z,6.031671554252219
2023-04-15T05:57:16.000Z,6.060850439882717
2023-04-15T05:58:19.000Z,6.051124144672551
2023-04-15T05:59:22.000Z,6.070576735092883
2023-04-15T06:00:25.000Z,6.060850439882717
2023-04-15T06:01:28.000Z,6.051124144672551
2023-04-15T06:02:31.000Z,6.08030303030305
2023-04-15T06:03:34.000Z,6.090029325513216
2023-04-15T06:04:37.000Z,5.953861192570889
2023-04-15T06:05:40.000Z,6.051124144672551
2023-04-15T06:06:43.000Z,6.099755620723382
2023-04-15T06:07:46.000Z,6.090029325513216
2023-04-15T06:08:49.000Z,6.060850439882717
2023-04-15T06:09:52.000Z,6.08030303030305
2023-04-15T06:10:55.000Z,6.109481915933548
2023-04-15T06:11:58.000Z,6.109481915933548
2023-04-15T06:13:01.000Z,6.1192082111437145
2023-04-15T06:14:04.000Z,6.109481915933548
2023-04-15T06:15:07.000Z,6.00249266862172
2023-04-15T06:16:10.000Z,6.021945259042052
2023-04-15T06:17:13.000Z,6.070576735092883
2023-04-15T06:18:16.000Z,6.08030303030305
2023-04-15T06:19:19.000Z,6.090029325513216
2023-04-15T06:20:22.000Z,6.08030303030305
2023-04-15T06:21:25.000Z,6.08030303030305
2023-04-15T06:22:28.000Z,6.08030303030305
2023-04-15T06:23:31.000Z,5.9830400782013875
2023-04-15T06:24:34.000Z,5.9830400782013875
2023-04-15T06:25:37.000Z,6.070576735092883
2023-04-15T06:26:40.000Z,6.070576735092883
2023-04-15T06:27:43.000Z,6.1192082111437145
2023-04-15T06:28:46.000Z,6.1192082111437145
2023-04-15T06:29:49.000Z,6.128934506353881
2023-04-15T06:30:52.000Z,6.021945259042052
2023-04-15T06:31:55.000Z,6.148387096774213
2023-04-15T06:32:58.000Z,6.158113391984379
2023-04-15T06:34:01.000Z,6.20674486803521
2023-04-15T06:35:04.000Z,6.167839687194546
2023-04-15T06:36:07.000Z,6.090029325513216
2023-04-15T06:37:10.000Z,6.031671554252219
2023-04-15T06:38:13.000Z,6.08030303030305
2023-04-15T06:39:16.000Z,6.1192082111437145
2023-04-15T06:40:20.000Z,6.109481915933548
2023-04-15T06:41:23.000Z,6.041397849462385
2023-04-15T06:42:30.000Z,6.099755620723382
2023-04-15T06:43:38.000Z,5.885777126099725
2023-04-15T06:44:41.000Z,6.08030303030305
2023-04-15T06:45:45.000Z,6.148387096774213
2023-04-15T06:46:48.000Z,6.148387096774213
2023-04-15T06:47:51.000Z,6.148387096774213
2023-04-15T06:48:53.000Z,6.138660801564047
2023-04-15T06:49:56.000Z,6.041397849462385
2023-04-15T06:51:00.000Z,6.158113391984379
2023-04-15T06:52:03.000Z,6.177565982404712
2023-04-15T06:53:11.000Z,6.197018572825044
2023-04-15T06:54:14.000Z,6.128934506353881
2023-04-15T06:55:17.000Z,6.090029325513216
2023-04-15T06:56:21.000Z,6.1192082111437145
2023-04-15T06:57:24.000Z,6.1192082111437145
2023-04-15T06:58:32.000Z,6.138660801564047
2023-04-15T06:59:35.000Z,6.099755620723382
2023-04-15T07:00:38.000Z,6.099755620723382
2023-04-15T07:01:41.000Z,6.128934506353881
2023-04-15T07:02:44.000Z,6.090029325513216
2023-04-15T07:03:47.000Z,6.060850439882717
2023-04-15T07:04:51.000Z,6.158113391984379
2023-04-15T07:05:54.000Z,6.1192082111437145
2023-04-15T07:06:57.000Z,5.953861192570889
2023-04-15T07:08:00.000Z,6.197018572825044
2023-04-15T07:09:03.000Z,6.216471163245377
2023-04-15T07:10:06.000Z,6.226197458455543
2023-04-15T07:11:10.000Z,6.235923753665709
2023-04-15T07:12:12.000Z,6.1192082111437145
2023-04-15T07:13:15.000Z,6.167839687194546
2023-04-15T07:14:19.000Z,6.177565982404712
2023-04-15T07:15:22.000Z,6.187292277614878
2023-04-15T07:16:25.000Z,6.060850439882717
2023-04-15T07:17:28.000Z,6.148387096774213
2023-04-15T07:18:31.000Z,6.177565982404712
2023-04-15T07:19:35.000Z,6.158113391984379
2023-04-15T07:20:38.000Z,6.138660801564047
2023-04-15T07:21:41.000Z,6.138660801564047
2023-04-15T07:22:45.000Z,6.109481915933548
2023-04-15T07:23:48.000Z,6.235923753665709
2023-04-15T07:24:52.000Z,6.235923753665709
2023-04-15T07:25:55.000Z,6.2553763440860415
2023-04-15T07:26:58.000Z,6.109481915933548
2023-04-15T07:28:01.000Z,6.20674486803521
2023-04-15T07:29:04.000Z,6.109481915933548
2023-04-15T07:30:07.000Z,6.2553763440860415
2023-04-15T07:31:10.000Z,6.235923753665709
2023-04-15T07:32:13.000Z,6.265102639296208
2023-04-15T07:33:16.000Z,6.226197458455543
2023-04-15T07:34:19.000Z,6.070576735092883
2023-04-15T07:35:22.000Z,6.177565982404712
2023-04-15T07:36:26.000Z,6.187292277614878
2023-04-15T07:37:29.000Z,6.158113391984379
2023-04-15T07:38:32.000Z,6.070576735092883
2023-04-15T07:39:35.000Z,6.08030303030305
2023-04-15T07:40:38.000Z,6.158113391984379
2023-04-15T07:41:41.000Z,6.148387096774213
2023-04-15T07:42:44.000Z,6.128934506353881
2023-04-15T07:43:52.000Z,6.20674486803521
2023-04-15T07:44:55.000Z,6.226197458455543
2023-04-15T07:45:58.000Z,6.235923753665709
2023-04-15T07:47:01.000Z,6.245650048875875
2023-04-15T07:48:09.000Z,6.226197458455543
2023-04-15T07:49:12.000Z,6.245650048875875
2023-04-15T07:50:15.000Z,6.245650048875875
2023-04-15T07:51:18.000Z,6.177565982404712
2023-04-15T07:52:21.000Z,6.167839687194546
2023-04-15T07:53:24.000Z,6.08030303030305
2023-04-15T07:54:27.000Z,6.197018572825044
2023-04-15T07:55:30.000Z,6.187292277614878
2023-04-15T07:56:33.000Z,6.187292277614878
2023-04-15T07:57:37.000Z,6.070576735092883
2023-04-15T07:58:40.000Z,6.187292277614878
2023-04-15T07:59:43.000Z,6.070576735092883
2023-04-15T08:00:56.000Z,6.109481915933548
2023-04-15T08:01:59.000Z,6.226197458455543
2023-04-15T08:03:02.000Z,6.245650048875875
2023-04-15T08:04:05.000Z,6.099755620723382
2023-04-15T08:05:08.000Z,6.28455522971654
2023-04-15T08:06:11.000Z,6.245650048875875
2023-04-15T08:07:14.000Z,6.274828934506374
2023-04-15T08:08:17.000Z,6.158113391984379
2023-04-15T08:09:20.000Z,6.20674486803521
2023-04-15T08:10:23.000Z,6.2553763440860415
2023-04-15T08:11:27.000Z,6.197018572825044
2023-04-15T08:12:35.000Z,6.216471163245377
2023-04-15T08:13:38.000Z,6.099755620723382
2023-04-15T08:14:42.000Z,6.245650048875875
2023-04-15T08:15:45.000Z,6.2553763440860415
2023-04-15T08:16:48.000Z,6.265102639296208
2023-04-15T08:17:51.000Z,6.352639296187704
2023-04-15T08:18:54.000Z,6.352639296187704
2023-04-15T08:19:57.000Z,6.3040078201368726
2023-04-15T08:21:00.000Z,6.177565982404712
2023-04-15T08:22:03.000Z,6.352639296187704
2023-04-15T08:23:07.000Z,6.333186705767371
2023-04-15T08:24:10.000Z,6.333186705767371
2023-04-15T08:25:13.000Z,6.333186705767371
2023-04-15T08:26:16.000Z,6.226197458455543
2023-04-15T08:27:19.000Z,6.216471163245377
2023-04-15T08:28:27.000Z,6.294281524926706
2023-04-15T08:29:30.000Z,6.158113391984379
2023-04-15T08:30:33.000Z,6.313734115347039
2023-04-15T08:31:36.000Z,6.274828934506374
2023-04-15T08:32:39.000Z,6.274828934506374
2023-04-15T08:33:42.000Z,6.265102639296208
2023-04-15T08:34:46.000Z,6.2553763440860415
2023-04-15T08:35:49.000Z,6.265102639296208
2023-04-15T08:36:52.000Z,6.352639296187704
2023-04-15T08:37:55.000Z,6.352639296187704
2023-04-15T08:38:58.000Z,6.36236559139787
2023-04-15T08:40:01.000Z,6.235923753665709
2023-04-15T08:41:04.000Z,6.372091886608036
2023-04-15T08:42:07.000Z,6.372091886608036
2023-04-15T08:43:10.000Z,6.3915444770283685
2023-04-15T08:44:13.000Z,6.20674486803521
2023-04-15T08:45:17.000Z,6.3915444770283685
2023-04-15T08:46:20.000Z,6.401270772238535
2023-04-15T08:47:23.000Z,6.323460410557205
2023-04-15T08:48:26.000Z,6.274828934506374
2023-04-15T08:49:29.000Z,6.167839687194546
2023-04-15T08:50:33.000Z,6.3040078201368726
2023-04-15T08:51:37.000Z,6.197018572825044
2023-04-15T08:52:40.000Z,6.352639296187704
2023-04-15T08:53:48.000Z,6.187292277614878
2023-04-15T08:54:51.000Z,6.20674486803521
2023-04-15T08:55:54.000Z,6.36236559139787
2023-04-15T08:56:58.000Z,6.352639296187704
2023-04-15T08:58:01.000Z,6.216471163245377
2023-04-15T08:59:04.000Z,6.352639296187704
2023-04-15T09:00:07.000Z,6.342913000977537
2023-04-15T09:01:12.000Z,6.372091886608036
2023-04-15T09:02:15.000Z,6.3915444770283685
2023-04-15T09:03:18.000Z,6.2553763440860415
2023-04-15T09:04:21.000Z,6.323460410557205
2023-04-15T09:05:24.000Z,6.294281524926706
2023-04-15T09:06:27.000Z,6.3040078201368726
2023-04-15T09:07:31.000Z,6.197018572825044
2023-04-15T09:08:34.000Z,6.313734115347039
2023-04-15T09:09:37.000Z,6.294281524926706
2023-04-15T09:10:40.000Z,6.158113391984379
2023-04-15T09:11:43.000Z,6.20674486803521
2023-04-15T09:12:47.000Z,6.342913000977537
2023-04-15T09:13:50.000Z,6.36236559139787
2023-04-15T09:14:53.000Z,6.3915444770283685
2023-04-15T09:15:56.000Z,6.216471163245377
2023-04-15T09:16:59.000Z,6.410997067448701
2023-04-15T09:18:02.000Z,6.420723362658867
2023-04-15T09:19:06.000Z,6.28455522971654
2023-04-15T09:20:14.000Z,6.4401759530791995
2023-04-15T09:21:17.000Z,6.3915444770283685
2023-04-15T09:22:20.000Z,6.4401759530791995
2023-04-15T09:23:24.000Z,6.294281524926706
2023-04-15T09:24:27.000Z,6.36236559139787
2023-04-15T09:25:30.000Z,6.381818181818202
2023-04-15T09:26:39.000Z,6.36236559139787
2023-04-15T09:27:42.000Z,6.372091886608036
2023-04-15T09:28:45.000Z,6.36236559139787
2023-04-15T09:29:48.000Z,6.342913000977537
2023-04-15T09:30:51.000Z,6.3915444770283685
2023-04-15T09:31:54.000Z,6.459628543499532
2023-04-15T09:32:57.000Z,6.4401759530791995
2023-04-15T09:34:00.000Z,6.177565982404712
2023-04-15T09:35:03.000Z,6.479081133919864
2023-04-15T09:36:07.000Z,6.3915444770283685
2023-04-15T09:37:11.000Z,6.469354838709698
2023-04-15T09:38:14.000Z,6.479081133919864
2023-04-15T09:39:17.000Z,6.352639296187704
2023-04-15T09:40:20.000Z,6.508260019550363
2023-04-15T09:41:23.000Z,6.294281524926706
2023-04-15T09:42:26.000Z,6.449902248289366
2023-04-15T09:43:29.000Z,6.469354838709698
2023-04-15T09:44:32.000Z,6.4401759530791995
2023-04-15T09:45:35.000Z,6.498533724340197
2023-04-15T09:46:38.000Z,6.469354838709698
2023-04-15T09:47:41.000Z,6.333186705767371